GCHI/VDE METAR and TAF weather

Enter ICAO airport designator
Station Type Date Time Source
GCHI METAR 2018/12/13 16:00 UTC NOAA

GCHI 131600Z 02008KT 350V060 9999 FEW030 22/16 Q1026


Station Type Date Time Source
GCHI Decoded METAR 2018/12/13 16:00 UTC NOAA

Hierro / Aeropuerto, Spain (GCHI) 27-49N 017-53W 32M
Dec 13, 2018 - 11:00 AM EST / 2018.12.13 1600 UTC
Wind: from the NNE (020 degrees) at 9 MPH (8 KT) (direction variable):0
Visibility: greater than 7 mile(s):0
Sky conditions: mostly clear
Temperature: 71 F (22 C)
Dew Point: 60 F (16 C)
Relative Humidity: 68%
Pressure (altimeter): 30.30 in. Hg (1026 hPa)
ob: GCHI 131600Z 02008KT 350V060 9999 FEW030 22/16 Q1026
cycle: 16

Station Type Date Time Source
GCHI TAF 2018/12/13 15:00 UTC NOAA

TAF GCHI 131400Z 1315/1415 04011KT 9999 FEW025 TX23/1413Z TN20/1406Z


Example: see airport list